createdAt,value
2022-09-28T00:01:30.094Z,8.10
2022-09-28T00:03:58.292Z,8.10
2022-09-28T00:06:34.044Z,8.10
2022-09-28T00:09:08.039Z,8.10
2022-09-28T00:11:35.102Z,8.10
2022-09-28T00:14:03.600Z,8.10
2022-09-28T00:16:40.195Z,8.20
2022-09-28T00:19:15.241Z,8.20
2022-09-28T00:21:49.077Z,8.20
2022-09-28T00:24:15.967Z,8.20
2022-09-28T00:27:01.079Z,8.20
2022-09-28T00:29:40.088Z,8.20
2022-09-28T00:32:12.257Z,8.20
2022-09-28T00:34:49.100Z,8.20
2022-09-28T00:37:22.135Z,8.20
2022-09-28T00:39:49.439Z,8.20
2022-09-28T00:42:32.102Z,8.20
2022-09-28T00:44:59.544Z,8.20
2022-09-28T00:47:47.111Z,8.20
2022-09-28T00:50:19.874Z,8.20
2022-09-28T00:53:03.117Z,8.20
2022-09-28T00:55:45.117Z,8.30
2022-09-28T00:58:26.160Z,8.30
2022-09-28T01:01:01.249Z,8.30
2022-09-28T01:03:35.122Z,8.20
2022-09-28T01:06:10.136Z,8.20
2022-09-28T01:08:39.011Z,8.30
2022-09-28T01:11:12.196Z,8.30
2022-09-28T01:13:47.149Z,8.30
2022-09-28T01:16:28.903Z,8.30
2022-09-28T01:19:22.168Z,8.30
2022-09-28T01:22:14.144Z,8.30
2022-09-28T01:24:45.710Z,8.20
2022-09-28T01:27:42.190Z,8.20
2022-09-28T01:30:24.172Z,8.20
2022-09-28T01:33:05.182Z,8.20
2022-09-28T01:35:43.331Z,8.10
2022-09-28T01:38:26.214Z,8.10
2022-09-28T01:41:01.195Z,8.10
2022-09-28T01:43:30.210Z,8.10
2022-09-28T01:46:11.213Z,8.00
2022-09-28T01:49:11.188Z,8.00
2022-09-28T01:52:01.199Z,8.00
2022-09-28T01:54:37.124Z,8.00
2022-09-28T01:57:18.194Z,8.00
2022-09-28T02:00:04.240Z,8.00
2022-09-28T02:02:40.122Z,8.00
2022-09-28T02:05:30.235Z,8.00
2022-09-28T02:08:17.236Z,8.00
2022-09-28T02:11:28.240Z,8.00
2022-09-28T02:14:20.247Z,7.90
2022-09-28T02:17:01.252Z,8.00
2022-09-28T02:19:40.269Z,8.00
2022-09-28T02:22:23.328Z,8.00
2022-09-28T02:25:15.272Z,7.90
2022-09-28T02:28:03.276Z,8.00
2022-09-28T02:30:37.276Z,7.90
2022-09-28T02:33:21.273Z,8.00
2022-09-28T02:35:48.112Z,7.90
2022-09-28T02:38:22.289Z,7.90
2022-09-28T02:41:04.800Z,7.90
2022-09-28T02:43:53.284Z,7.90
2022-09-28T02:46:36.286Z,7.90
2022-09-28T02:49:21.317Z,7.90
2022-09-28T02:52:30.305Z,8.00
2022-09-28T02:55:19.283Z,8.00
2022-09-28T02:58:06.982Z,8.00
2022-09-28T03:00:47.464Z,8.00
2022-09-28T03:03:39.655Z,8.00
2022-09-28T03:06:47.341Z,8.00
2022-09-28T03:09:23.039Z,8.00
2022-09-28T03:12:00.348Z,8.00
2022-09-28T03:14:28.940Z,8.00
2022-09-28T03:17:02.370Z,8.00
2022-09-28T03:19:39.361Z,8.00
2022-09-28T03:22:12.369Z,8.10
2022-09-28T03:24:46.361Z,8.10
2022-09-28T03:27:19.346Z,8.10
2022-09-28T03:29:46.145Z,8.10
2022-09-28T03:32:19.376Z,8.20
2022-09-28T03:34:46.350Z,8.20
2022-09-28T03:37:19.371Z,8.20
2022-09-28T03:39:46.202Z,8.10
2022-09-28T03:42:19.386Z,8.10
2022-09-28T03:44:52.365Z,8.10
2022-09-28T03:47:19.555Z,8.10
2022-09-28T03:49:59.412Z,8.00
2022-09-28T03:52:26.287Z,8.00
2022-09-28T03:54:53.046Z,8.00
2022-09-28T03:57:26.401Z,8.00
2022-09-28T03:59:59.400Z,8.00
2022-09-28T04:02:26.256Z,8.00
2022-09-28T04:04:59.436Z,8.00
2022-09-28T04:07:30.763Z,8.00
2022-09-28T04:09:58.192Z,8.00
2022-09-28T04:12:31.397Z,7.90
2022-09-28T04:14:58.198Z,7.90
2022-09-28T04:17:25.115Z,7.90
2022-09-28T04:19:58.422Z,7.90
2022-09-28T04:22:31.446Z,7.90
2022-09-28T04:24:58.418Z,7.90
2022-09-28T04:27:50.476Z,7.90
2022-09-28T04:30:17.457Z,8.00
2022-09-28T04:32:53.456Z,8.00
2022-09-28T04:35:20.296Z,8.00
2022-09-28T04:37:47.087Z,8.00
2022-09-28T04:40:20.505Z,8.00
2022-09-28T04:42:56.976Z,8.00
2022-09-28T04:45:32.511Z,8.10
2022-09-28T04:48:05.450Z,8.10
2022-09-28T04:50:40.487Z,8.10
2022-09-28T04:53:07.307Z,8.20
2022-09-28T04:55:34.079Z,8.20
2022-09-28T04:58:10.509Z,8.20
2022-09-28T05:00:43.553Z,8.20
2022-09-28T05:03:16.544Z,8.20
2022-09-28T05:05:46.697Z,8.10
2022-09-28T05:08:20.497Z,8.10
2022-09-28T05:10:47.421Z,8.10
2022-09-28T05:13:21.525Z,8.00
2022-09-28T05:16:11.096Z,8.00
2022-09-28T05:18:38.099Z,8.00
2022-09-28T05:21:19.644Z,8.00
2022-09-28T05:23:47.407Z,8.00
2022-09-28T05:26:21.568Z,7.90
2022-09-28T05:28:54.557Z,7.90
2022-09-28T05:31:27.665Z,7.90
2022-09-28T05:34:05.788Z,7.90
2022-09-28T05:36:39.585Z,7.90
2022-09-28T05:39:06.813Z,7.90
2022-09-28T05:41:54.558Z,7.90
2022-09-28T05:44:34.547Z,7.80
2022-09-28T05:47:07.585Z,7.80
2022-09-28T05:49:40.592Z,7.80
2022-09-28T05:52:14.588Z,7.80
2022-09-28T05:54:41.534Z,7.80
2022-09-28T05:57:08.312Z,7.80
2022-09-28T05:59:44.576Z,7.80
2022-09-28T06:02:17.653Z,7.80
2022-09-28T06:04:44.510Z,7.80
2022-09-28T06:07:18.745Z,7.90
2022-09-28T06:09:51.608Z,7.90
2022-09-28T06:12:24.737Z,7.90
2022-09-28T06:14:51.492Z,7.90
2022-09-28T06:17:18.316Z,7.90
2022-09-28T06:19:51.627Z,7.90
2022-09-28T06:22:18.470Z,8.00
2022-09-28T06:24:51.657Z,8.00
2022-09-28T06:27:18.460Z,8.00
2022-09-28T06:29:52.613Z,8.00
2022-09-28T06:32:19.729Z,8.00
2022-09-28T06:34:56.185Z,8.00
2022-09-28T06:37:23.488Z,8.00
2022-09-28T06:39:56.656Z,8.10
2022-09-28T06:42:23.435Z,8.10
2022-09-28T06:44:56.662Z,8.10
2022-09-28T06:47:29.665Z,8.20
2022-09-28T06:49:56.427Z,8.20
2022-09-28T06:52:23.300Z,8.20
2022-09-28T06:54:56.687Z,8.20
2022-09-28T06:57:29.691Z,8.30
2022-09-28T07:00:02.660Z,8.30
2022-09-28T07:02:32.461Z,8.30
2022-09-28T07:05:05.683Z,8.40
2022-09-28T07:07:33.094Z,8.40
2022-09-28T07:10:06.691Z,8.50
2022-09-28T07:12:35.843Z,8.50
2022-09-28T07:15:09.695Z,8.60
2022-09-28T07:17:47.678Z,8.70
2022-09-28T07:20:24.769Z,8.70
2022-09-28T07:23:15.005Z,8.80
2022-09-28T07:25:55.788Z,8.80
2022-09-28T07:28:22.759Z,8.90
2022-09-28T07:30:50.132Z,9.00
2022-09-28T07:33:24.755Z,9.10
2022-09-28T07:35:55.754Z,9.10
2022-09-28T07:38:29.760Z,9.10
2022-09-28T07:41:12.074Z,9.20
2022-09-28T07:43:46.761Z,9.20
2022-09-28T07:46:13.541Z,9.30
2022-09-28T07:48:42.823Z,9.40
2022-09-28T07:51:16.791Z,9.50
2022-09-28T07:53:49.765Z,9.50
2022-09-28T07:56:18.283Z,9.60
2022-09-28T07:58:53.826Z,9.70
2022-09-28T08:01:27.994Z,9.70
2022-09-28T08:04:02.784Z,9.80
2022-09-28T08:06:30.546Z,9.90
2022-09-28T08:09:06.799Z,9.90
2022-09-28T08:11:33.606Z,10.00
2022-09-28T08:14:06.747Z,10.00
2022-09-28T08:16:40.881Z,10.00
2022-09-28T08:19:07.719Z,10.10
2022-09-28T08:21:52.848Z,10.20
2022-09-28T08:24:20.125Z,10.20
2022-09-28T08:26:53.828Z,10.30
2022-09-28T08:29:26.848Z,10.40
2022-09-28T08:32:01.690Z,10.50
2022-09-28T08:34:40.673Z,10.50
2022-09-28T08:37:18.864Z,10.60
2022-09-28T08:39:45.657Z,10.70
2022-09-28T08:42:36.850Z,10.90
2022-09-28T08:45:15.365Z,10.90
2022-09-28T08:48:25.853Z,10.90
2022-09-28T08:51:14.767Z,11.00
2022-09-28T08:54:30.285Z,11.10
2022-09-28T08:57:11.892Z,11.20
2022-09-28T08:59:59.842Z,11.30
2022-09-28T09:02:40.924Z,11.40
2022-09-28T09:05:20.911Z,11.40
2022-09-28T09:08:14.875Z,11.50
2022-09-28T09:11:13.902Z,11.60
2022-09-28T09:13:59.344Z,11.70
2022-09-28T09:16:47.931Z,11.90
2022-09-28T09:20:00.893Z,11.80
2022-09-28T09:22:45.897Z,12.00
2022-09-28T09:26:02.893Z,12.20
2022-09-28T09:28:54.983Z,12.40
2022-09-28T09:31:46.893Z,12.60
2022-09-28T09:34:42.938Z,12.80
2022-09-28T09:37:19.200Z,12.90
2022-09-28T09:40:31.006Z,13.00
2022-09-28T09:43:32.982Z,13.10
2022-09-28T09:46:22.014Z,13.30
2022-09-28T09:49:07.965Z,13.20
2022-09-28T09:52:07.931Z,13.00
2022-09-28T09:54:45.954Z,13.00
2022-09-28T09:57:25.974Z,12.80
2022-09-28T09:59:53.584Z,12.80
2022-09-28T10:02:37.109Z,12.70
2022-09-28T10:05:19.991Z,12.70
2022-09-28T10:07:49.949Z,12.90
2022-09-28T10:10:39.949Z,13.20
2022-09-28T10:13:06.765Z,13.50
2022-09-28T10:15:48.971Z,13.60
2022-09-28T10:18:19.162Z,13.70
2022-09-28T10:20:52.988Z,13.90
2022-09-28T10:23:34.021Z,14.20
2022-09-28T10:26:05.596Z,14.40
2022-09-28T10:29:02.013Z,14.40
2022-09-28T10:31:38.177Z,14.40
2022-09-28T10:34:13.013Z,14.20
2022-09-28T10:37:02.046Z,14.10
2022-09-28T10:39:31.343Z,14.20
2022-09-28T10:42:13.245Z,14.40
2022-09-28T10:44:56.231Z,14.70
2022-09-28T10:47:32.049Z,15.20
2022-09-28T10:49:59.574Z,15.60
2022-09-28T10:52:46.044Z,15.70
2022-09-28T10:55:23.341Z,15.50
2022-09-28T10:57:57.072Z,15.30
2022-09-28T11:00:31.651Z,15.30
2022-09-28T11:03:06.074Z,15.10
2022-09-28T11:05:34.024Z,14.90
2022-09-28T11:08:14.056Z,14.70
2022-09-28T11:10:42.879Z,14.50
2022-09-28T11:13:17.081Z,14.40
2022-09-28T11:15:44.430Z,14.40
2022-09-28T11:18:40.116Z,14.70
2022-09-28T11:21:22.111Z,15.10
2022-09-28T11:24:05.110Z,15.20
2022-09-28T11:26:37.791Z,15.10
2022-09-28T11:29:14.099Z,14.80
2022-09-28T11:31:40.958Z,14.80
2022-09-28T11:34:31.461Z,15.00
2022-09-28T11:37:26.129Z,15.20
2022-09-28T11:40:35.538Z,15.40
2022-09-28T11:43:25.135Z,15.50
2022-09-28T11:46:01.412Z,15.60
2022-09-28T11:48:46.136Z,15.70
2022-09-28T11:51:29.131Z,15.80
2022-09-28T11:54:09.146Z,15.70
2022-09-28T11:56:50.158Z,15.40
2022-09-28T11:59:20.332Z,15.40
2022-09-28T12:01:56.151Z,15.40
2022-09-28T12:04:55.167Z,15.40
2022-09-28T12:07:38.566Z,15.50
2022-09-28T12:10:20.162Z,15.50
2022-09-28T12:13:08.138Z,15.70
2022-09-28T12:16:27.671Z,15.90
2022-09-28T12:19:20.279Z,15.70
2022-09-28T12:21:55.039Z,15.50
2022-09-28T12:24:39.216Z,15.40
2022-09-28T12:27:15.037Z,15.10
2022-09-28T12:30:07.220Z,14.70
2022-09-28T12:32:50.892Z,14.50
2022-09-28T12:35:43.224Z,14.40
2022-09-28T12:38:16.214Z,14.40
2022-09-28T12:41:08.192Z,14.50
2022-09-28T12:43:44.529Z,14.60
2022-09-28T12:46:30.246Z,14.70
2022-09-28T12:52:59.418Z,14.40
2022-09-28T12:56:14.691Z,14.20
2022-09-28T12:58:59.995Z,14.20
2022-09-28T13:02:03.834Z,14.10
2022-09-28T13:04:55.908Z,14.10
2022-09-28T13:08:00.277Z,14.10
2022-09-28T13:10:36.060Z,14.10
2022-09-28T13:13:43.255Z,14.10
2022-09-28T13:16:38.258Z,14.10
2022-09-28T13:19:14.673Z,14.10
2022-09-28T13:22:22.284Z,14.20
2022-09-28T13:24:57.320Z,14.30
2022-09-28T13:27:43.287Z,14.30
2022-09-28T13:30:15.357Z,14.30
2022-09-28T13:32:50.292Z,14.30
2022-09-28T13:35:26.291Z,14.20
2022-09-28T13:38:24.286Z,14.00
2022-09-28T13:41:06.649Z,13.90
2022-09-28T13:44:17.317Z,13.80
2022-09-28T13:47:20.940Z,13.60
2022-09-28T13:50:11.601Z,13.50
2022-09-28T13:53:10.298Z,13.40
2022-09-28T13:55:49.024Z,13.30
2022-09-28T13:58:31.308Z,13.30
2022-09-28T14:01:10.679Z,13.10
2022-09-28T14:03:59.323Z,13.00
2022-09-28T14:06:31.191Z,12.90
2022-09-28T14:09:30.347Z,12.90
2022-09-28T14:12:07.315Z,12.80
2022-09-28T14:14:56.347Z,12.90
2022-09-28T14:17:27.192Z,12.90
2022-09-28T14:20:17.387Z,12.80
2022-09-28T14:23:05.556Z,12.80
2022-09-28T14:25:42.379Z,12.70
2022-09-28T14:28:55.374Z,12.80
2022-09-28T14:31:33.366Z,12.80
2022-09-28T14:34:02.073Z,12.90
2022-09-28T14:37:07.437Z,12.90
2022-09-28T14:40:01.406Z,12.90
2022-09-28T14:42:28.818Z,13.00
2022-09-28T14:45:26.373Z,13.00
2022-09-28T14:48:14.179Z,13.20
2022-09-28T14:50:47.391Z,13.20
2022-09-28T14:53:20.942Z,13.30
2022-09-28T14:56:06.432Z,13.40
2022-09-28T14:58:44.459Z,13.50
2022-09-28T15:01:26.421Z,13.50
2022-09-28T15:04:06.440Z,13.60
2022-09-28T15:06:48.825Z,13.60
2022-09-28T15:09:34.408Z,13.70
2022-09-28T15:12:15.128Z,13.70
2022-09-28T15:15:08.420Z,13.80
2022-09-28T15:17:40.064Z,13.70
2022-09-28T15:20:37.532Z,13.70
2022-09-28T15:23:04.399Z,13.80
2022-09-28T15:25:32.694Z,13.70
2022-09-28T15:28:13.456Z,13.70
2022-09-28T15:30:40.329Z,13.60
2022-09-28T15:34:08.448Z,13.60
2022-09-28T15:36:48.451Z,13.70
2022-09-28T15:39:46.218Z,13.80
2022-09-28T15:42:24.475Z,13.80
2022-09-28T15:45:26.593Z,13.70
2022-09-28T15:48:22.459Z,13.60
2022-09-28T15:51:17.472Z,13.50
2022-09-28T15:54:10.481Z,13.40
2022-09-28T15:56:56.911Z,13.30
2022-09-28T15:59:50.473Z,13.10
2022-09-28T16:02:29.516Z,13.10
2022-09-28T16:05:05.507Z,13.00
2022-09-28T16:07:47.526Z,12.80
2022-09-28T16:10:21.558Z,12.80
2022-09-28T16:12:55.065Z,12.70
2022-09-28T16:15:44.565Z,12.60
2022-09-28T16:18:26.518Z,12.60
2022-09-28T16:20:56.236Z,12.50
2022-09-28T16:23:40.517Z,12.50
2022-09-28T16:26:26.602Z,12.50
2022-09-28T16:29:00.510Z,12.50
2022-09-28T16:31:34.005Z,12.60
2022-09-28T16:34:26.579Z,12.60
2022-09-28T16:36:53.579Z,12.60
2022-09-28T16:39:27.561Z,12.70
2022-09-28T16:42:06.568Z,12.70
2022-09-28T16:44:43.579Z,12.70
2022-09-28T16:47:16.558Z,12.70
2022-09-28T16:49:49.594Z,12.70
2022-09-28T16:52:42.609Z,12.60
2022-09-28T16:55:38.765Z,12.50
2022-09-28T16:58:10.609Z,12.40
2022-09-28T17:00:43.578Z,12.30
2022-09-28T17:03:16.024Z,12.20
2022-09-28T17:05:49.598Z,12.10
2022-09-28T17:08:18.428Z,12.00
2022-09-28T17:11:24.710Z,12.00
2022-09-28T17:13:53.574Z,11.90
2022-09-28T17:16:49.767Z,11.80
2022-09-28T17:19:24.368Z,11.80
2022-09-28T17:21:58.646Z,11.70
2022-09-28T17:24:31.620Z,11.60
2022-09-28T17:27:00.721Z,11.60
2022-09-28T17:29:34.665Z,11.50
2022-09-28T17:32:01.682Z,11.50
2022-09-28T17:34:35.639Z,11.40
2022-09-28T17:37:02.735Z,11.40
2022-09-28T17:39:38.708Z,11.40
2022-09-28T17:42:05.718Z,11.40
2022-09-28T17:44:38.799Z,11.30
2022-09-28T17:47:06.759Z,11.30
2022-09-28T17:49:33.562Z,11.30
2022-09-28T17:52:06.657Z,11.30
2022-09-28T17:54:34.620Z,11.30
2022-09-28T17:57:07.751Z,11.30
2022-09-28T17:59:34.616Z,11.30
2022-09-28T18:02:03.224Z,11.20
2022-09-28T18:04:51.207Z,11.20
2022-09-28T18:07:18.825Z,11.30
2022-09-28T18:09:52.672Z,11.20
2022-09-28T18:12:25.741Z,11.20
2022-09-28T18:14:53.266Z,11.20
2022-09-28T18:17:20.184Z,11.20
2022-09-28T18:19:53.802Z,11.20
2022-09-28T18:22:27.007Z,11.20
2022-09-28T18:25:00.807Z,11.20
2022-09-28T18:27:30.127Z,11.10
2022-09-28T18:29:57.233Z,11.20
2022-09-28T18:32:30.826Z,11.20
2022-09-28T18:34:57.651Z,11.10
2022-09-28T18:37:24.494Z,11.20
2022-09-28T18:39:57.990Z,11.10
2022-09-28T18:42:25.343Z,11.10
2022-09-28T18:44:58.739Z,11.10
2022-09-28T18:47:33.809Z,11.10
2022-09-28T18:50:00.720Z,11.10
2022-09-28T18:52:27.615Z,11.10
2022-09-28T18:55:01.810Z,11.10
2022-09-28T18:57:28.663Z,11.10
2022-09-28T19:00:01.819Z,11.10
2022-09-28T19:02:34.386Z,11.10
2022-09-28T19:05:07.800Z,11.10
2022-09-28T19:07:35.088Z,11.00
2022-09-28T19:10:08.803Z,11.00
2022-09-28T19:12:35.658Z,11.00
2022-09-28T19:15:08.774Z,11.00
2022-09-28T19:17:35.643Z,11.00
2022-09-28T19:20:08.815Z,11.00
2022-09-28T19:22:35.655Z,11.00
2022-09-28T19:25:08.855Z,11.00
2022-09-28T19:27:42.821Z,11.00
2022-09-28T19:30:16.866Z,10.90
2022-09-28T19:32:50.843Z,10.90
2022-09-28T19:35:18.375Z,10.80
2022-09-28T19:37:52.824Z,10.70
2022-09-28T19:40:19.722Z,10.70
2022-09-28T19:42:52.825Z,10.60
2022-09-28T19:45:25.907Z,10.60
2022-09-28T19:47:59.529Z,10.50
2022-09-28T19:50:26.434Z,10.50
2022-09-28T19:52:59.850Z,10.40
2022-09-28T19:55:31.913Z,10.40
2022-09-28T19:58:06.855Z,10.30
2022-09-28T20:00:33.690Z,10.30
2022-09-28T20:03:06.925Z,10.20
2022-09-28T20:05:33.772Z,10.20
2022-09-28T20:08:06.890Z,10.10
2022-09-28T20:10:40.906Z,10.10
2022-09-28T20:13:13.903Z,10.10
2022-09-28T20:15:41.638Z,10.10
2022-09-28T20:18:15.961Z,10.10
2022-09-28T20:20:42.915Z,10.00
2022-09-28T20:23:15.897Z,10.00
2022-09-28T20:25:42.697Z,10.00
2022-09-28T20:28:15.920Z,10.00
2022-09-28T20:30:42.866Z,10.00
2022-09-28T20:33:27.456Z,9.90
2022-09-28T20:35:56.297Z,9.90
2022-09-28T20:38:29.911Z,9.90
2022-09-28T20:41:07.910Z,9.90
2022-09-28T20:43:41.926Z,9.90
2022-09-28T20:46:13.518Z,9.90
2022-09-28T20:48:52.295Z,9.80
2022-09-28T20:51:27.629Z,9.80
2022-09-28T20:54:05.477Z,9.70
2022-09-28T20:56:39.049Z,9.70
2022-09-28T20:59:20.509Z,9.70
2022-09-28T21:01:49.571Z,9.70
2022-09-28T21:04:26.188Z,9.60
2022-09-28T21:07:01.042Z,9.60
2022-09-28T21:09:37.132Z,9.60
2022-09-28T21:12:05.908Z,9.60
2022-09-28T21:14:41.314Z,9.60
2022-09-28T21:17:22.005Z,9.60
2022-09-28T21:19:54.991Z,9.50
2022-09-28T21:22:21.766Z,9.50
2022-09-28T21:24:54.976Z,9.50
2022-09-28T21:27:21.793Z,9.50
2022-09-28T21:29:55.001Z,9.50
2022-09-28T21:32:23.219Z,9.50
2022-09-28T21:35:23.157Z,9.50
2022-09-28T21:37:56.186Z,9.50
2022-09-28T21:40:29.248Z,9.50
2022-09-28T21:43:03.258Z,9.40
2022-09-28T21:45:32.163Z,9.40
2022-09-28T21:48:06.274Z,9.30
2022-09-28T21:50:33.261Z,9.30
2022-09-28T21:53:01.836Z,9.30
2022-09-28T21:55:35.280Z,9.30
2022-09-28T21:58:01.976Z,9.30
2022-09-28T22:00:28.747Z,9.20
2022-09-28T22:03:02.257Z,9.20
2022-09-28T22:05:29.100Z,9.20
2022-09-28T22:07:55.843Z,9.20
2022-09-28T22:10:29.258Z,9.20
2022-09-28T22:13:02.410Z,9.10
2022-09-28T22:15:30.288Z,9.10
2022-09-28T22:17:57.759Z,9.10
2022-09-28T22:20:31.248Z,9.10
2022-09-28T22:22:57.974Z,9.10
2022-09-28T22:25:31.288Z,9.10
2022-09-28T22:27:58.075Z,9.10
2022-09-28T22:30:31.371Z,9.10
2022-09-28T22:32:58.174Z,9.00
2022-09-28T22:35:24.985Z,9.10
2022-09-28T22:37:58.372Z,9.00
2022-09-28T22:40:25.292Z,9.00
2022-09-28T22:42:52.118Z,9.00
2022-09-28T22:45:26.431Z,9.00
2022-09-28T22:47:53.154Z,9.00
2022-09-28T22:50:20.028Z,9.00
2022-09-28T22:52:55.281Z,9.00
2022-09-28T22:55:22.141Z,9.00
2022-09-28T22:57:48.873Z,9.00
2022-09-28T23:00:22.356Z,9.00
2022-09-28T23:02:55.046Z,8.90
2022-09-28T23:05:21.791Z,8.90
2022-09-28T23:07:55.417Z,8.90
2022-09-28T23:10:22.393Z,8.90
2022-09-28T23:12:49.298Z,8.90
2022-09-28T23:15:22.348Z,8.90
2022-09-28T23:17:59.354Z,8.90
2022-09-28T23:20:26.104Z,8.80
2022-09-28T23:22:52.934Z,8.80
2022-09-28T23:25:27.340Z,8.80
2022-09-28T23:27:54.365Z,8.80
2022-09-28T23:30:21.526Z,8.70
2022-09-28T23:32:57.334Z,8.70
2022-09-28T23:35:24.059Z,8.70
2022-09-28T23:37:58.399Z,8.70
2022-09-28T23:40:25.158Z,8.70
2022-09-28T23:42:58.369Z,8.60
2022-09-28T23:45:25.160Z,8.60
2022-09-28T23:47:58.358Z,8.60
2022-09-28T23:50:25.409Z,8.60
2022-09-28T23:52:58.446Z,8.60
2022-09-28T23:55:31.408Z,8.60
2022-09-28T23:58:05.385Z,8.60
